Time;durP1;ratioP1;P1;durP2;ratioP2;P2;SDS_P1;SDS_P2;PMS_P1;PMS_P2;Temp;Humidity;BMP_temperature;BMP_pressure;BME280_temperature;BME280_humidity;BME280_pressure;Samples;Min_cycle;Max_cycle;Signal;HPM_P1;HPM_P2
2022/05/20 00:02:22;;;;;;;;;22.25;19.00;;;;;14.87;68.65;102217.13;5031072;28;10090;-67
2022/05/20 00:04:49;;;;;;;;;15.00;15.00;;;;;14.87;68.46;102219.81;5016027;28;10008;-67
2022/05/20 00:07:16;;;;;;;;;19.75;18.50;;;;;14.86;68.69;102212.72;5020935;28;9929;-67
2022/05/20 00:09:42;;;;;;;;;24.75;17.75;;;;;14.83;68.66;102211.25;5024631;28;9804;-67
2022/05/20 00:12:09;;;;;;;;;24.00;18.00;;;;;14.82;68.94;102210.38;5022893;28;10003;-66
2022/05/20 00:14:36;;;;;;;;;22.00;18.25;;;;;14.81;68.91;102213.31;5028334;28;9924;-67
2022/05/20 00:17:05;;;;;;;;;21.50;18.25;;;;;14.79;68.77;102220.81;5029500;28;9920;-67
2022/05/20 00:19:32;;;;;;;;;19.00;19.00;;;;;14.77;68.82;102214.72;5026215;28;10036;-67
2022/05/20 00:21:59;;;;;;;;;19.50;16.75;;;;;14.72;68.97;102214.44;5024445;28;10642;-67
2022/05/20 00:24:26;;;;;;;;;19.75;15.00;;;;;14.71;68.92;102219.03;5026788;28;9787;-67
2022/05/20 00:26:53;;;;;;;;;15.50;15.50;;;;;14.71;68.87;102215.47;5022195;28;10033;-67
2022/05/20 00:29:19;;;;;;;;;15.75;15.75;;;;;14.69;68.94;102206.69;5017240;28;9840;-67
2022/05/20 00:31:46;;;;;;;;;24.75;22.25;;;;;14.67;68.64;102211.47;5030857;28;10071;-67
2022/05/20 00:34:13;;;;;;;;;19.00;17.25;;;;;14.65;68.99;102214.34;5023301;28;10665;-67
2022/05/20 00:36:39;;;;;;;;;20.00;16.25;;;;;14.64;68.98;102201.00;5022177;28;9763;-66
2022/05/20 00:39:06;;;;;;;;;20.50;16.75;;;;;14.65;69.35;102198.06;5022679;28;9690;-66
2022/05/20 00:41:33;;;;;;;;;21.00;18.75;;;;;14.64;69.01;102192.84;5027618;28;9749;-66
2022/05/20 00:43:59;;;;;;;;;14.50;14.50;;;;;14.63;69.31;102189.31;5017234;28;9870;-66
2022/05/20 00:46:29;;;;;;;;;18.75;18.00;;;;;14.62;68.89;102193.03;5029136;28;9922;-66
2022/05/20 00:48:56;;;;;;;;;22.50;17.00;;;;;14.61;69.48;102188.63;5020097;28;9951;-67
2022/05/20 00:51:58;;;;;;;;;19.75;18.50;;;;;14.61;69.30;102191.34;5030496;28;9931;-67
2022/05/20 00:54:29;;;;;;;;;18.00;17.00;;;;;14.62;69.54;102192.19;4968034;28;9830;-66
2022/05/20 00:57:12;;;;;;;;;19.25;19.00;;;;;14.61;69.25;102194.06;5004135;28;9936;-66
2022/05/20 00:59:43;;;;;;;;;18.75;18.00;;;;;14.61;69.30;102191.34;5019108;28;9836;-66
2022/05/20 01:02:16;;;;;;;;;24.00;21.00;;;;;14.57;69.10;102188.19;5020470;28;10011;-66
2022/05/20 01:04:50;;;;;;;;;19.25;16.00;;;;;14.51;68.91;102185.41;5018343;28;10126;-66
2022/05/20 01:07:18;;;;;;;;;24.75;22.50;;;;;14.48;69.23;102189.28;5028199;28;10678;-66
2022/05/20 01:09:45;;;;;;;;;15.00;15.00;;;;;14.45;69.14;102186.09;5018088;28;10102;-66
2022/05/20 01:12:12;;;;;;;;;19.25;17.00;;;;;14.44;69.13;102189.84;5010423;28;9996;-66
2022/05/20 01:14:39;;;;;;;;;17.50;17.50;;;;;14.41;69.17;102180.19;5016289;28;9942;-66
2022/05/20 01:17:07;;;;;;;;;24.00;21.75;;;;;14.39;69.16;102182.28;5020970;28;10041;-66
2022/05/20 01:19:39;;;;;;;;;17.50;16.75;;;;;14.35;69.19;102180.97;5024890;28;10024;-66
2022/05/20 01:22:07;;;;;;;;;15.50;15.50;;;;;14.35;69.25;102178.25;5029084;28;10200;-66
2022/05/20 01:24:34;;;;;;;;;18.25;16.25;;;;;14.34;69.23;102174.72;5025288;28;10089;-66
2022/05/20 01:27:00;;;;;;;;;17.50;13.50;;;;;14.37;69.33;102178.06;5029740;28;9985;-66
2022/05/20 01:29:27;;;;;;;;;15.75;14.25;;;;;14.34;69.31;102182.84;5029848;28;9967;-66
2022/05/20 01:31:54;;;;;;;;;17.00;14.50;;;;;14.35;69.22;102183.69;5021517;28;10080;-66
2022/05/20 01:34:21;;;;;;;;;18.50;14.50;;;;;14.34;69.43;102171.13;5017715;28;10026;-66
2022/05/20 01:36:47;;;;;;;;;17.50;15.75;;;;;14.31;69.14;102169.66;5020713;28;10107;-66
2022/05/20 01:39:14;;;;;;;;;19.00;15.75;;;;;14.29;69.28;102160.88;5016364;28;10007;-66
2022/05/20 01:41:55;;;;;;;;;21.00;18.25;;;;;14.25;69.29;102159.56;5029943;28;10007;-66
2022/05/20 01:44:43;;;;;;;;;14.50;14.00;;;;;14.26;69.45;102160.41;5022107;28;10025;-66
2022/05/20 01:47:30;;;;;;;;;16.25;14.25;;;;;14.23;69.37;102158.91;5027978;28;10836;-67
2022/05/20 01:50:02;;;;;;;;;17.00;17.00;;;;;14.21;69.49;102155.53;5029700;28;10193;-66
2022/05/20 01:52:45;;;;;;;;;17.50;16.50;;;;;14.19;69.58;102149.47;5029940;28;10173;-66
2022/05/20 01:55:24;;;;;;;;;23.50;17.25;;;;;14.17;69.40;102145.28;5028495;28;10105;-66
2022/05/20 01:58:00;;;;;;;;;15.00;14.00;;;;;14.17;69.69;102137.16;5030762;28;10847;-66
2022/05/20 02:00:29;;;;;;;;;18.00;14.00;;;;;14.15;69.62;102139.22;5026946;28;9988;-66
2022/05/20 02:03:06;;;;;;;;;16.75;16.75;;;;;14.14;69.67;102134.81;5017045;28;10183;-67
2022/05/20 02:05:38;;;;;;;;;17.50;17.25;;;;;14.10;69.55;102127.06;5027850;28;10065;-66
2022/05/20 02:08:17;;;;;;;;;19.00;18.75;;;;;14.07;69.69;102108.47;5015518;28;10183;-66
2022/05/20 02:10:52;;;;;;;;;18.00;18.00;;;;;14.05;69.51;102124.06;5030574;28;10072;-66
2022/05/20 02:13:19;;;;;;;;;19.00;19.00;;;;;14.01;69.48;102116.50;5024584;28;10241;-66
2022/05/20 02:15:56;;;;;;;;;13.00;13.00;;;;;13.99;69.61;102123.97;5031462;28;10279;-66
2022/05/20 02:18:31;;;;;;;;;19.25;16.00;;;;;14.00;69.84;102139.19;5029498;28;10062;-66
2022/05/20 02:21:05;;;;;;;;;19.75;19.75;;;;;13.99;69.96;102126.69;5032154;28;10016;-66
2022/05/20 02:23:37;;;;;;;;;17.50;16.50;;;;;14.01;70.13;102122.75;5020940;28;10199;-66
2022/05/20 02:26:09;;;;;;;;;22.00;17.50;;;;;13.99;69.85;102123.97;5024328;28;9909;-66
2022/05/20 02:28:41;;;;;;;;;24.25;18.75;;;;;13.98;69.73;102128.56;5026247;28;10076;-66
2022/05/20 02:31:13;;;;;;;;;15.50;15.50;;;;;13.96;69.97;102122.47;5013207;28;10133;-66
2022/05/20 02:33:40;;;;;;;;;21.00;21.00;;;;;13.95;69.84;102128.09;5013706;28;10011;-66
2022/05/20 02:36:20;;;;;;;;;21.25;18.00;;;;;13.94;70.01;102126.41;5032636;28;10187;-66
2022/05/20 02:38:47;;;;;;;;;16.75;16.75;;;;;13.92;70.09;102129.28;5028907;28;10298;-66
2022/05/20 02:41:13;;;;;;;;;23.50;21.25;;;;;13.90;69.94;102125.94;5022161;28;10143;-67
2022/05/20 02:43:40;;;;;;;;;21.25;18.00;;;;;13.89;69.96;102118.81;5013542;28;10236;-66
2022/05/20 02:46:06;;;;;;;;;24.00;21.25;;;;;13.85;70.06;102121.09;5032605;28;10175;-66
2022/05/20 02:48:34;;;;;;;;;23.25;20.25;;;;;13.85;70.15;102126.50;5019658;28;10181;-66
2022/05/20 02:51:01;;;;;;;;;25.00;22.50;;;;;13.85;70.29;102115.66;5022257;28;10236;-66
2022/05/20 02:53:27;;;;;;;;;20.25;17.75;;;;;13.86;70.04;102119.22;5021832;28;10329;-66
2022/05/20 02:55:54;;;;;;;;;20.25;19.25;;;;;13.84;70.08;102116.66;5018639;28;10434;-66
2022/05/20 03:04:10;;;;;;;;;22.25;22.25;;;;;13.78;69.95;102120.13;5016362;28;10476;-66
2022/05/20 03:06:44;;;;;;;;;22.00;19.75;;;;;13.77;70.08;102117.59;5019848;28;10326;-66
2022/05/20 03:09:13;;;;;;;;;23.50;21.50;;;;;13.75;70.10;102115.06;5031569;28;10380;-65
2022/05/20 03:11:40;;;;;;;;;22.25;21.00;;;;;13.73;70.15;102111.72;5031842;28;10378;-66
2022/05/20 03:14:09;;;;;;;;;22.00;20.50;;;;;13.72;70.14;102125.44;5032043;28;10503;-66
2022/05/20 03:16:37;;;;;;;;;20.25;18.00;;;;;13.72;70.19;102128.13;5030438;28;10244;-66
2022/05/20 03:19:04;;;;;;;;;19.00;19.00;;;;;13.72;70.54;102128.97;5027138;28;10161;-66
2022/05/20 03:21:32;;;;;;;;;22.75;21.00;;;;;13.72;70.14;102128.13;5020595;28;10324;-66
2022/05/20 03:24:02;;;;;;;;;25.50;23.50;;;;;13.70;70.31;102117.50;5013654;28;10370;-66
2022/05/20 03:26:30;;;;;;;;;22.50;22.00;;;;;13.72;70.42;102125.44;5017980;28;10522;-68
2022/05/20 03:28:59;;;;;;;;;22.00;18.50;;;;;13.72;70.47;102120.84;5020339;28;10273;-66
2022/05/20 03:31:27;;;;;;;;;22.25;20.75;;;;;13.72;70.22;102110.03;5032030;28;10099;-66
2022/05/20 03:33:53;;;;;;;;;23.00;18.75;;;;;13.73;70.28;102114.44;5017750;28;10175;-66
2022/05/20 03:36:21;;;;;;;;;24.25;20.25;;;;;13.73;70.37;102110.88;5026353;28;10239;-66
2022/05/20 03:38:47;;;;;;;;;23.25;20.75;;;;;13.70;70.36;102106.69;5030040;28;10123;-66
2022/05/20 03:41:14;;;;;;;;;22.25;18.25;;;;;13.69;70.36;102107.69;5030584;28;10238;-66
2022/05/20 03:43:40;;;;;;;;;20.00;19.50;;;;;13.68;70.46;102113.28;5031280;28;10241;-66
2022/05/20 03:46:08;;;;;;;;;22.00;20.75;;;;;13.64;70.66;102118.22;5024519;28;10479;-67
2022/05/20 03:48:34;;;;;;;;;23.50;19.50;;;;;13.63;70.40;102119.25;5023068;28;10249;-66
2022/05/20 03:51:13;;;;;;;;;17.75;17.00;;;;;13.61;70.47;102118.56;5029815;28;10926;-66
2022/05/20 03:53:40;;;;;;;;;16.75;16.75;;;;;13.59;70.52;102120.66;5030322;28;12540;-66
2022/05/20 03:56:07;;;;;;;;;20.75;17.75;;;;;13.58;70.71;102114.41;5014910;28;10196;-66
2022/05/20 03:58:35;;;;;;;;;20.00;17.75;;;;;13.59;70.63;102115.22;5010055;28;10155;-66
2022/05/20 04:03:48;;;;;;;;;22.25;20.25;;;;;13.61;70.93;102110.47;5029854;28;10174;-66
2022/05/20 04:06:15;;;;;;;;;21.00;20.00;;;;;13.62;70.71;102108.63;5031125;28;10160;-66
2022/05/20 04:08:41;;;;;;;;;21.00;14.25;;;;;13.63;70.99;102104.88;5024959;28;10884;-66
2022/05/20 04:11:11;;;;;;;;;15.00;15.00;;;;;13.65;70.92;102100.94;5021604;28;10888;-66
2022/05/20 04:13:39;;;;;;;;;15.00;15.00;;;;;13.69;71.13;102098.72;5013579;28;10090;-66
2022/05/20 04:16:06;;;;;;;;;14.25;14.00;;;;;13.71;70.95;102105.66;5020452;28;10980;-67
2022/05/20 04:18:33;;;;;;;;;18.50;17.00;;;;;13.75;70.99;102098.84;5029498;28;10004;-66
2022/05/20 04:20:59;;;;;;;;;21.25;17.25;;;;;13.77;71.06;102095.94;5010372;28;10108;-66
2022/05/20 04:23:26;;;;;;;;;13.00;12.00;;;;;13.84;71.05;102102.31;5011560;28;9927;-66
2022/05/20 04:25:52;;;;;;;;;18.50;14.50;;;;;13.89;70.78;102096.31;5027389;28;9920;-66
2022/05/20 04:28:18;;;;;;;;;16.25;16.00;;;;;13.91;71.07;102091.59;5021790;28;9910;-66
2022/05/20 04:30:45;;;;;;;;;17.00;16.00;;;;;13.97;71.18;102094.38;5030841;28;10876;-66
2022/05/20 04:33:13;;;;;;;;;14.50;13.75;;;;;13.99;71.05;102096.91;5031190;28;9955;-66
2022/05/20 04:35:39;;;;;;;;;10.50;10.25;;;;;14.03;70.97;102095.50;5016041;28;9849;-66
2022/05/20 04:38:06;;;;;;;;;12.50;11.75;;;;;14.06;70.77;102101.41;5018953;28;9817;-66
2022/05/20 04:40:32;;;;;;;;;15.00;12.75;;;;;14.09;70.79;102092.88;5026627;28;9768;-65
2022/05/20 04:48:29;;;;;;;;;16.25;16.00;;;;;14.17;70.77;102091.09;5010968;28;9919;-65
2022/05/20 04:50:55;;;;;;;;;17.75;15.75;;;;;14.14;70.66;102086.06;5021449;28;9830;-67
2022/05/20 04:56:07;;;;;;;;;14.50;14.50;;;;;14.14;70.86;102075.22;5026359;28;9846;-65
2022/05/20 04:58:34;;;;;;;;;16.50;14.75;;;;;14.15;71.05;102068.81;5030191;28;9993;-65
2022/05/20 05:01:00;;;;;;;;;17.25;16.00;;;;;14.17;70.95;102073.00;5024807;28;9925;-65
2022/05/20 05:03:27;;;;;;;;;21.50;19.25;;;;;14.18;70.94;102077.41;5024479;28;10008;-65
2022/05/20 05:05:54;;;;;;;;;18.75;18.75;;;;;14.20;70.75;102080.75;5029144;28;10792;-65
2022/05/20 05:08:23;;;;;;;;;16.25;14.50;;;;;14.22;70.95;102089.53;5030116;28;10059;-65
2022/05/20 05:10:52;;;;;;;;;17.25;16.00;;;;;14.26;70.97;102087.25;5022912;28;10016;-66
2022/05/20 05:13:18;;;;;;;;;16.00;13.50;;;;;14.30;71.13;102092.16;5020504;28;10018;-65
2022/05/20 05:15:45;;;;;;;;;17.50;17.25;;;;;14.33;70.82;102099.03;5020395;28;9921;-66
2022/05/20 05:18:16;;;;;;;;;16.75;15.00;;;;;14.34;70.96;102098.00;5020112;28;10234;-66
2022/05/20 05:20:50;;;;;;;;;17.25;15.50;;;;;14.35;70.82;102103.25;5027618;28;9924;-66
2022/05/20 05:23:18;;;;;;;;;15.75;15.50;;;;;14.37;70.61;102099.50;5030459;28;10011;-66
2022/05/20 05:25:46;;;;;;;;;13.50;10.75;;;;;14.42;70.64;102100.63;5023263;28;9761;-66
2022/05/20 05:28:13;;;;;;;;;13.25;12.75;;;;;14.47;70.61;102110.91;5027083;28;9832;-66
2022/05/20 05:30:42;;;;;;;;;10.75;10.75;;;;;14.52;70.50;102114.75;5030645;28;9768;-66
2022/05/20 05:33:09;;;;;;;;;13.50;12.00;;;;;14.61;70.48;102123.59;5024743;28;9691;-66
2022/05/20 05:35:35;;;;;;;;;12.75;11.75;;;;;14.78;70.39;102122.34;5032214;28;10546;-67
2022/05/20 05:38:02;;;;;;;;;13.75;12.00;;;;;14.92;69.83;102114.38;5013649;28;10477;-67
2022/05/20 05:40:31;;;;;;;;;9.75;9.75;;;;;15.01;69.44;102113.22;5020493;28;9714;-67
2022/05/20 05:42:59;;;;;;;;;9.50;9.50;;;;;15.11;69.16;102111.03;5020324;28;9591;-67
2022/05/20 05:45:28;;;;;;;;;8.75;8.75;;;;;15.27;68.59;102118.06;5022343;28;9599;-67
2022/05/20 05:47:57;;;;;;;;;8.33;6.00;;;;;15.44;68.15;102116.78;5021568;28;10171;-67
2022/05/20 05:50:25;;;;;;;;;10.00;9.00;;;;;15.61;67.44;102116.50;5027798;28;10094;-67
2022/05/20 05:53:00;;;;;;;;;8.67;8.67;;;;;15.74;66.88;102114.75;5031932;28;9518;-65
2022/05/20 05:55:27;;;;;;;;;5.67;5.67;;;;;15.82;66.84;102111.88;5018894;28;9399;-66
2022/05/20 05:57:54;;;;;;;;;7.00;7.00;;;;;15.81;65.96;102096.63;5018405;28;9359;-65
2022/05/20 06:00:21;;;;;;;;;8.67;8.00;;;;;15.82;65.87;102100.19;5027381;28;9171;-66
2022/05/20 06:02:47;;;;;;;;;7.33;7.33;;;;;15.80;65.75;102097.69;5028409;28;9304;-67
2022/05/20 06:05:14;;;;;;;;;7.00;6.00;;;;;15.76;65.42;102098.28;5032815;28;9339;-65
2022/05/20 06:07:41;;;;;;;;;6.67;5.00;;;;;15.67;65.31;102096.72;5033266;28;9328;-65
2022/05/20 06:10:07;;;;;;;;;4.00;4.00;;;;;15.62;65.67;102100.00;5028345;28;9280;-65
2022/05/20 06:12:34;;;;;;;;;2.00;2.00;;;;;15.69;65.63;102092.78;5024032;28;9750;-65
2022/05/20 06:15:09;;;;;;;;;5.33;5.33;;;;;15.74;65.43;102103.06;5022747;28;9966;-68
2022/05/20 06:17:35;;;;;;;;;8.00;7.00;;;;;15.75;66.10;102092.00;5026022;28;9164;-67
2022/05/20 06:20:03;;;;;;;;;9.33;9.33;;;;;15.82;66.06;102092.88;5027525;28;9313;-67
2022/05/20 06:22:30;;;;;;;;;9.67;7.00;;;;;15.74;64.81;102086.75;5021268;28;9407;-67
2022/05/20 06:24:56;;;;;;;;;6.67;6.00;;;;;15.62;65.13;102102.72;5023449;28;9459;-67
2022/05/20 06:27:23;;;;;;;;;8.00;8.00;;;;;15.58;64.81;102107.69;5032512;28;9055;-67
2022/05/20 06:29:51;;;;;;;;;11.33;10.67;;;;;15.57;64.67;102111.47;5018450;28;9360;-67
2022/05/20 06:32:18;;;;;;;;;9.00;9.00;;;;;15.52;65.00;102094.09;5021099;28;9158;-67
2022/05/20 06:40:18;;;;;;;;;7.67;7.67;;;;;15.37;64.98;102082.47;5030887;28;9239;-67
2022/05/20 06:42:44;;;;;;;;;10.00;9.33;;;;;15.44;65.23;102094.25;5021502;28;9308;-67
2022/05/20 06:45:13;;;;;;;;;7.67;7.67;;;;;15.48;64.83;102085.50;5015343;28;9381;-67
2022/05/20 06:47:39;;;;;;;;;12.67;11.00;;;;;15.45;64.93;102088.59;5013097;28;9214;-67
2022/05/20 06:50:09;;;;;;;;;12.25;12.25;;;;;15.41;64.63;102089.19;5025000;28;9331;-67
2022/05/20 06:52:36;;;;;;;;;14.25;11.75;;;;;15.40;65.48;102084.81;5032552;28;9503;-67
2022/05/20 06:55:05;;;;;;;;;11.00;10.00;;;;;15.43;65.02;102087.09;5020393;28;9509;-67
2022/05/20 06:57:37;;;;;;;;;11.00;10.33;;;;;15.42;65.03;102083.56;5069257;23;9559;-65
2022/05/20 07:00:05;;;;;;;;;16.00;13.75;;;;;15.36;65.03;102075.38;5051866;28;9369;-66
2022/05/20 07:02:31;;;;;;;;;12.67;11.33;;;;;15.34;65.01;102072.84;5052032;28;9388;-65
2022/05/20 07:05:03;;;;;;;;;11.00;9.67;;;;;15.32;65.01;102077.66;5039345;28;9506;-65
2022/05/20 07:07:29;;;;;;;;;11.50;11.00;;;;;15.37;65.54;102074.34;5013611;28;9382;-65
2022/05/20 07:09:56;;;;;;;;;8.00;7.00;;;;;15.41;65.03;102078.34;5022787;28;9469;-65
2022/05/20 07:12:23;;;;;;;;;8.33;8.33;;;;;15.45;65.07;102085.06;5031607;28;9495;-67
2022/05/20 07:14:49;;;;;;;;;8.00;8.00;;;;;15.48;65.30;102071.09;5029444;28;9481;-65
2022/05/20 07:17:16;;;;;;;;;13.75;11.75;;;;;15.54;64.98;102062.16;5029983;28;9520;-66
2022/05/20 07:19:43;;;;;;;;;6.75;2.75;;;;;15.58;64.69;102063.44;5031143;28;9531;-66
2022/05/20 07:22:10;;;;;;;;;15.00;10.67;;;;;15.67;65.12;102062.28;5031764;28;9443;-66
2022/05/20 07:24:38;;;;;;;;;11.25;10.50;;;;;15.81;65.13;102068.66;5031514;28;9391;-67
2022/05/20 07:27:05;;;;;;;;;10.25;9.25;;;;;15.92;64.37;102068.09;5011137;28;9469;-67
2022/05/20 07:29:31;;;;;;;;;10.50;9.50;;;;;15.99;64.25;102065.41;5019482;28;10182;-67
2022/05/20 07:31:58;;;;;;;;;12.33;11.33;;;;;15.95;63.84;102058.69;5033046;28;9538;-67
2022/05/20 07:34:25;;;;;;;;;8.67;8.67;;;;;15.94;63.82;102063.28;5032296;28;9485;-67
2022/05/20 07:36:52;;;;;;;;;5.33;5.33;;;;;15.93;63.73;102053.47;5030222;28;10147;-66
2022/05/20 07:39:18;;;;;;;;;8.00;8.00;;;;;15.97;63.82;102046.59;5031140;28;9486;-67
2022/05/20 07:41:46;;;;;;;;;9.00;8.33;;;;;16.06;63.65;102047.28;5031469;28;9305;-67
2022/05/20 07:44:13;;;;;;;;;6.67;6.67;;;;;16.15;63.24;102045.22;5029845;28;9473;-67
2022/05/20 07:46:39;;;;;;;;;11.67;10.67;;;;;16.17;62.57;102044.00;5016060;28;9239;-67
2022/05/20 07:49:06;;;;;;;;;7.67;7.33;;;;;16.18;62.15;102039.41;5015225;28;10009;-65
2022/05/20 07:51:34;;;;;;;;;6.67;6.67;;;;;16.19;61.81;102027.47;5031220;28;9312;-66
2022/05/20 07:54:05;;;;;;;;;8.00;8.00;;;;;16.23;62.00;102021.44;5030491;28;9317;-66
2022/05/20 07:56:37;;;;;;;;;16.33;14.00;;;;;16.29;61.44;102017.09;5017413;28;9259;-65
2022/05/20 07:59:09;;;;;;;;;14.00;14.00;;;;;16.23;61.07;102021.44;5014867;28;9401;-66
2022/05/20 08:01:41;;;;;;;;;8.00;8.00;;;;;16.24;61.22;102020.38;5030984;28;9296;-66
2022/05/20 08:05:00;;;;;;;;;15.67;14.33;;;;;16.32;61.14;102013.94;5030779;28;9166;-66
2022/05/20 08:07:36;;;;;;;;;11.75;11.75;;;;;16.38;60.99;102004.16;5045182;28;9477;-66
2022/05/20 08:10:07;;;;;;;;;14.00;12.00;;;;;16.43;61.21;101993.50;5030534;28;9433;-65
2022/05/20 08:12:34;;;;;;;;;8.00;8.00;;;;;16.47;61.01;101992.88;5030856;28;9302;-67
2022/05/20 08:15:01;;;;;;;;;12.00;9.67;;;;;16.52;61.38;101975.94;5020763;28;9062;-66
2022/05/20 08:17:29;;;;;;;;;7.00;7.00;;;;;16.54;60.93;101982.03;5009300;28;9296;-66
2022/05/20 08:19:56;;;;;;;;;10.00;9.00;;;;;16.59;60.76;101987.69;5020630;28;9225;-66
2022/05/20 08:22:23;;;;;;;;;10.00;8.00;;;;;16.56;60.30;101969.91;5030348;28;9839;-65
2022/05/20 08:24:54;;;;;;;;;13.00;12.33;;;;;16.56;60.01;101975.34;5029423;28;9339;-66
2022/05/20 08:27:23;;;;;;;;;9.67;9.67;;;;;16.62;60.22;101972.84;5030191;28;9217;-67
2022/05/20 08:29:50;;;;;;;;;8.00;6.67;;;;;16.68;59.74;101975.56;5028955;28;9176;-66
2022/05/20 08:32:17;;;;;;;;;6.67;6.67;;;;;16.75;59.63;101981.06;5029139;28;9069;-65
2022/05/20 08:34:46;;;;;;;;;10.33;10.33;;;;;16.79;59.48;101963.28;5029946;28;9150;-65
2022/05/20 08:37:14;;;;;;;;;5.67;5.67;;;;;16.86;59.97;101966.00;5016784;28;9379;-66
2022/05/20 08:39:41;;;;;;;;;13.33;12.33;;;;;16.96;59.23;101963.69;5018358;28;9079;-66
2022/05/20 08:42:17;;;;;;;;;7.33;7.33;;;;;17.02;59.19;101961.00;5030735;28;9390;-66
2022/05/20 08:44:44;;;;;;;;;10.33;10.33;;;;;17.10;59.44;101951.78;5028310;28;9098;-65
2022/05/20 08:47:22;;;;;;;;;9.00;9.00;;;;;17.10;59.15;101959.94;5029788;28;9279;-66
2022/05/20 08:49:51;;;;;;;;;10.33;10.33;;;;;17.12;59.24;101946.94;5020630;28;9235;-66
2022/05/20 08:52:18;;;;;;;;;11.33;10.33;;;;;17.12;59.24;101946.94;5010316;28;9384;-66
2022/05/20 08:54:44;;;;;;;;;9.00;9.00;;;;;17.16;59.52;101931.03;5019629;28;9932;-66
2022/05/20 08:57:33;;;;;;;;;9.00;9.00;;;;;17.18;59.18;101918.09;5029740;28;9158;-67
2022/05/20 09:00:05;;;;;;;;;12.33;12.33;;;;;17.22;59.52;101913.88;5021232;28;9956;-67
2022/05/20 09:02:32;;;;;;;;;9.00;9.00;;;;;17.27;59.44;101895.03;5010298;28;9143;-66
2022/05/20 09:04:59;;;;;;;;;9.33;9.00;;;;;17.28;59.26;101883.91;5020743;28;9077;-66
2022/05/20 09:07:25;;;;;;;;;13.00;11.00;;;;;17.25;59.05;101878.06;5029754;28;8904;-66
2022/05/20 09:09:58;;;;;;;;;9.00;7.00;;;;;17.28;59.24;101873.03;5028754;28;9248;-66
2022/05/20 09:12:36;;;;;;;;;11.00;8.33;;;;;17.34;59.33;101860.47;5028786;28;8943;-65
2022/05/20 09:18:12;;;;;;;;;17.67;15.00;;;;;17.46;58.58;101860.63;5029627;28;9161;-66
2022/05/20 09:20:45;;;;;;;;;19.33;16.67;;;;;17.44;57.63;101854.56;5012961;28;9170;-66
2022/05/20 09:23:15;;;;;;;;;20.00;20.00;;;;;17.43;57.55;101847.47;4992397;28;9464;-67
2022/05/20 09:25:50;;;;;;;;;19.67;18.33;;;;;17.41;57.84;101834.03;5026658;28;9387;-67
2022/05/20 09:28:30;;;;;;;;;13.33;13.00;;;;;17.45;58.16;101837.19;5029312;28;9308;-67
2022/05/20 09:31:24;;;;;;;;;14.00;12.67;;;;;17.54;58.77;101852.22;5028239;28;9070;-66
2022/05/20 09:34:09;;;;;;;;;10.33;10.00;;;;;17.63;58.78;101852.81;5029101;28;9130;-66
2022/05/20 09:36:59;;;;;;;;;10.67;10.67;;;;;17.68;58.78;101853.00;5029085;28;8989;-66
2022/05/20 09:39:30;;;;;;;;;12.33;12.00;;;;;17.72;58.14;101854.25;5024290;28;9654;-66
2022/05/20 09:42:01;;;;;;;;;11.33;10.33;;;;;17.76;58.45;101852.78;5010118;28;8985;-67
2022/05/20 09:44:37;;;;;;;;;15.67;13.67;;;;;17.79;57.97;101855.09;5015688;28;9201;-67
2022/05/20 09:47:22;;;;;;;;;21.33;18.33;;;;;17.82;57.38;101848.34;5029187;28;9802;-67
2022/05/20 09:49:54;;;;;;;;;20.00;17.67;;;;;17.77;57.01;101838.94;5028364;28;9331;-67
2022/05/20 09:52:25;;;;;;;;;13.00;12.50;;;;;17.75;58.15;101826.63;5029466;28;9380;-67
2022/05/20 09:55:06;;;;;;;;;11.67;11.67;;;;;17.79;58.21;101817.78;5028176;28;9701;-67
2022/05/20 09:57:39;;;;;;;;;12.00;11.00;;;;;17.90;58.21;101813.50;5028008;28;8982;-66
2022/05/20 10:00:17;;;;;;;;;8.00;7.67;;;;;18.00;58.19;101804.88;5029524;28;8978;-67
2022/05/20 10:03:04;;;;;;;;;12.67;12.67;;;;;18.10;58.00;101797.03;5029898;28;8917;-66
2022/05/20 10:05:41;;;;;;;;;12.00;12.00;;;;;18.12;57.55;101784.03;5029650;28;9083;-67
2022/05/20 10:08:15;;;;;;;;;11.00;11.00;;;;;18.17;57.92;101780.66;5028136;28;9002;-67
2022/05/20 10:11:06;;;;;;;;;20.33;18.00;;;;;18.16;58.03;101774.38;5029130;28;9070;-67
2022/05/20 10:13:35;;;;;;;;;12.50;11.25;;;;;18.20;58.20;101759.22;5029507;28;9238;-67
2022/05/20 10:16:10;;;;;;;;;12.00;12.00;;;;;18.21;57.93;101762.78;5029476;28;8852;-66
2022/05/20 10:18:57;;;;;;;;;17.33;16.67;;;;;18.32;58.01;101744.88;5011460;28;9070;-67
2022/05/20 10:22:02;;;;;;;;;18.67;15.33;;;;;18.33;57.93;101731.03;5024136;28;9311;-67
2022/05/20 10:24:48;;;;;;;;;20.67;17.00;;;;;18.34;58.08;101724.50;4975885;28;9191;-67
2022/05/20 10:27:33;;;;;;;;;18.67;18.00;;;;;18.33;58.39;101713.84;5010614;28;9298;-66
2022/05/20 10:33:06;;;;;;;;;19.00;16.67;;;;;18.39;59.15;101680.22;5027892;28;8993;-67
2022/05/20 10:36:00;;;;;;;;;18.00;17.33;;;;;18.43;59.37;101665.94;5012425;28;9295;-67
2022/05/20 10:38:32;;;;;;;;;19.33;15.00;;;;;18.50;59.63;101666.66;5023409;28;9274;-67
2022/05/20 10:41:10;;;;;;;;;14.00;13.67;;;;;18.56;59.39;101669.56;5032343;28;9095;-66
2022/05/20 10:50:31;;;;;;;;;24.00;21.00;;;;;18.57;58.83;101650.25;4971151;28;9181;-66
2022/05/20 10:53:26;;;;;;;;;15.33;15.33;;;;;18.64;58.96;101640.09;5022175;28;9331;-66
2022/05/20 10:55:58;;;;;;;;;21.33;19.67;;;;;18.70;59.30;101622.00;5029982;28;9076;-67
2022/05/20 10:58:48;;;;;;;;;18.67;18.67;;;;;18.75;59.05;101628.44;5030357;28;9157;-67
2022/05/20 11:01:36;;;;;;;;;23.00;21.67;;;;;18.77;58.59;101609.94;5032254;28;9314;-68
2022/05/20 11:04:26;;;;;;;;;22.00;20.00;;;;;18.80;59.11;101584.13;5031998;28;9174;-67
2022/05/20 11:07:33;;;;;;;;;25.00;20.00;;;;;18.81;58.89;101563.97;5029822;28;9223;-67
2022/05/20 11:10:29;;;;;;;;;24.33;23.00;;;;;18.79;57.77;101549.69;5030980;28;9278;-67
2022/05/20 11:13:17;;;;;;;;;27.00;24.00;;;;;18.76;58.26;101567.38;5031607;28;9402;-66
2022/05/20 11:16:11;;;;;;;;;15.67;15.33;;;;;18.78;58.79;101559.78;5031622;28;9077;-66
2022/05/20 11:19:22;;;;;;;;;17.00;15.33;;;;;18.80;58.41;101564.16;5026936;28;8935;-66
2022/05/20 11:22:24;;;;;;;;;17.00;17.00;;;;;18.70;58.24;101567.47;5006473;28;8913;-66
2022/05/20 11:24:53;;;;;;;;;18.00;17.00;;;;;18.58;57.83;101547.47;5029115;28;8956;-66
2022/05/20 11:27:53;;;;;;;;;14.67;14.67;;;;;18.48;57.75;101542.56;5030861;28;9162;-65
2022/05/20 11:30:57;;;;;;;;;18.33;17.00;;;;;18.42;57.69;101525.22;5012823;28;8927;-66
2022/05/20 11:33:57;;;;;;;;;15.33;15.33;;;;;18.51;58.38;101512.94;5019307;28;9300;-66
2022/05/20 11:36:33;;;;;;;;;19.33;19.33;;;;;18.65;58.29;101504.56;5031833;28;9111;-66
2022/05/20 11:39:17;;;;;;;;;18.25;14.50;;;;;18.64;57.20;101495.56;5031071;28;8967;-68
2022/05/20 11:42:11;;;;;;;;;17.75;17.50;;;;;18.64;57.16;101492.84;5030206;28;8868;-66
2022/05/20 11:45:09;;;;;;;;;13.75;13.00;;;;;18.64;56.62;101481.94;5029797;28;8898;-67
2022/05/20 11:48:00;;;;;;;;;16.67;15.00;;;;;18.65;54.69;101466.41;5029065;28;8820;-64
2022/05/20 11:50:37;;;;;;;;;1.00;0.00;;;;;18.64;55.44;101459.28;5029872;28;8982;-66
2022/05/20 11:53:21;;;;;;;;;11.50;10.25;;;;;18.65;55.27;101450.03;5030703;28;9523;-67
2022/05/20 11:56:19;;;;;;;;;13.50;12.25;;;;;18.64;55.02;101442.94;5025811;28;8828;-67
2022/05/20 11:59:16;;;;;;;;;8.75;8.75;;;;;18.67;54.81;101434.25;5038710;28;8823;-66
2022/05/20 12:01:51;;;;;;;;;11.00;11.00;;;;;18.64;55.12;101430.13;5018575;28;8842;-66
2022/05/20 12:04:21;;;;;;;;;10.25;9.50;;;;;18.62;55.11;101432.22;5028911;28;8938;-66
2022/05/20 12:06:53;;;;;;;;;13.33;11.33;;;;;18.60;55.51;101433.53;5028757;28;8841;-67
2022/05/20 12:09:35;;;;;;;;;20.33;16.67;;;;;18.55;55.61;101426.03;5012385;28;8994;-67
2022/05/20 12:12:28;;;;;;;;;5.67;5.67;;;;;18.53;56.14;101420.00;5018746;28;9166;-66
2022/05/20 12:15:01;;;;;;;;;15.00;13.75;;;;;18.50;56.41;101429.47;5010539;28;9474;-68
2022/05/20 12:17:40;;;;;;;;;7.25;7.25;;;;;18.50;58.17;101440.38;5010118;28;8853;-63